Time;durP1;ratioP1;P1;durP2;ratioP2;P2;SDS_P1;SDS_P2;PMS_P1;PMS_P2;Temp;Humidity;BMP_temperature;BMP_pressure;BME280_temperature;BME280_humidity;BME280_pressure;Samples;Min_cycle;Max_cycle;Signal;HPM_P1;HPM_P2
2022/08/29 00:00:28;;;;;;;3.45;2.33;;;21.00;60.50;;;;;;5050100;28;20462;-74
2022/08/29 00:02:56;;;;;;;3.70;2.20;;;21.00;58.60;;;;;;5051258;28;20136;-75
2022/08/29 00:05:24;;;;;;;4.93;2.40;;;21.00;58.60;;;;;;5050457;28;20056;-74
2022/08/29 00:07:52;;;;;;;3.10;1.95;;;21.00;58.60;;;;;;5050464;28;20049;-74
2022/08/29 00:10:19;;;;;;;4.00;2.33;;;21.00;58.60;;;;;;5050280;28;20045;-74
2022/08/29 00:12:46;;;;;;;4.70;2.47;;;21.00;58.60;;;;;;5050217;28;20053;-74
2022/08/29 00:15:13;;;;;;;3.05;2.20;;;21.00;58.60;;;;;;5053318;28;20180;-74
2022/08/29 00:17:40;;;;;;;5.72;2.65;;;20.80;60.80;;;;;;5054114;28;20051;-74
2022/08/29 00:20:08;;;;;;;3.85;2.42;;;21.00;58.60;;;;;;5053925;28;20135;-74
2022/08/29 00:22:35;;;;;;;3.10;2.05;;;21.00;58.60;;;;;;5054241;28;20136;-74
2022/08/29 00:25:04;;;;;;;3.55;2.33;;;20.90;58.50;;;;;;5054256;28;20060;-74
2022/08/29 00:27:31;;;;;;;3.40;2.22;;;21.00;58.60;;;;;;5053587;28;20131;-74
2022/08/29 00:29:57;;;;;;;3.22;2.08;;;21.00;58.60;;;;;;5053774;28;20474;-73
2022/08/29 00:32:24;;;;;;;3.22;2.10;;;21.50;61.10;;;;;;5053890;28;20080;-74
2022/08/29 00:34:51;;;;;;;2.90;2.08;;;21.00;58.60;;;;;;5054034;28;20081;-74
2022/08/29 00:37:17;;;;;;;4.97;2.47;;;21.00;58.60;;;;;;5054005;28;20065;-74
2022/08/29 00:39:44;;;;;;;4.43;2.03;;;21.00;58.60;;;;;;5053707;28;20055;-74
2022/08/29 00:42:12;;;;;;;4.25;2.33;;;21.00;58.60;;;;;;5053269;28;20057;-72
2022/08/29 00:44:39;;;;;;;4.10;2.30;;;21.00;58.70;;;;;;5054866;28;20040;-72
2022/08/29 00:47:08;;;;;;;3.95;2.50;;;21.00;58.70;;;;;;5053900;28;20053;-74
2022/08/29 00:49:38;;;;;;;4.97;2.25;;;21.00;58.70;;;;;;5053782;28;20053;-74
2022/08/29 00:52:06;;;;;;;5.28;2.53;;;20.90;58.60;;;;;;5054606;28;20049;-74
2022/08/29 00:54:33;;;;;;;3.88;2.33;;;21.00;58.70;;;;;;5053424;28;20053;-73
2022/08/29 00:57:00;;;;;;;4.07;2.50;;;20.90;58.60;;;;;;5053481;28;20490;-74
2022/08/29 00:59:30;;;;;;;4.03;2.28;;;20.90;58.60;;;;;;5053259;28;20059;-74
2022/08/29 01:01:57;;;;;;;3.67;2.50;;;20.90;58.60;;;;;;5053313;28;20053;-74
2022/08/29 01:04:23;;;;;;;3.83;2.28;;;20.90;58.60;;;;;;5054554;28;20469;-73
2022/08/29 01:06:50;;;;;;;3.70;2.20;;;20.90;58.60;;;;;;5053212;28;20057;-74
2022/08/29 01:09:17;;;;;;;3.58;2.25;;;20.90;58.60;;;;;;5052982;28;20128;-74
2022/08/29 01:14:29;;;;;;;3.22;2.10;;;20.90;58.60;;;;;;5053287;28;20048;-74
2022/08/29 01:16:57;;;;;;;5.05;2.50;;;20.90;58.70;;;;;;5053069;28;20049;-74
2022/08/29 01:19:34;;;;;;;3.75;2.40;;;20.80;60.90;;;;;;5052754;28;20136;-73
2022/08/29 01:22:06;;;;;;;3.88;2.20;;;20.90;58.60;;;;;;5037423;28;20139;-74
2022/08/29 01:24:38;;;;;;;3.83;1.92;;;20.90;58.70;;;;;;5052282;28;20055;-74
2022/08/29 01:27:04;;;;;;;4.10;2.20;;;20.90;58.70;;;;;;5053024;28;20098;-74
2022/08/29 01:29:31;;;;;;;3.65;2.30;;;20.90;58.70;;;;;;5053039;28;20129;-74
2022/08/29 01:31:58;;;;;;;3.50;1.88;;;20.90;58.70;;;;;;5053823;28;20394;-74
2022/08/29 01:34:25;;;;;;;3.20;2.00;;;20.80;61.00;;;;;;5053652;28;20055;-74
2022/08/29 01:36:52;;;;;;;3.97;2.20;;;20.90;58.70;;;;;;5052939;28;20059;-74
2022/08/29 01:39:20;;;;;;;3.40;2.03;;;20.90;58.70;;;;;;5052403;28;20075;-74
2022/08/29 01:41:48;;;;;;;3.20;2.00;;;20.90;58.70;;;;;;5052611;28;20060;-74
2022/08/29 01:44:18;;;;;;;3.97;2.13;;;20.80;58.70;;;;;;5051902;28;20049;-74
2022/08/29 01:46:45;;;;;;;3.97;2.53;;;20.90;58.80;;;;;;5052734;28;20088;-72
2022/08/29 01:49:12;;;;;;;3.47;2.20;;;20.80;58.80;;;;;;5052758;28;20052;-74
2022/08/29 01:51:39;;;;;;;3.22;2.00;;;20.90;58.80;;;;;;5052134;28;20060;-74
2022/08/29 01:54:06;;;;;;;3.00;1.98;;;20.90;58.80;;;;;;5052660;28;20052;-74
2022/08/29 01:56:36;;;;;;;3.10;2.10;;;20.90;58.80;;;;;;5052380;28;20048;-74
2022/08/29 01:59:05;;;;;;;3.45;2.40;;;20.80;58.80;;;;;;5052429;28;20059;-74
2022/08/29 02:01:33;;;;;;;3.28;2.25;;;20.80;58.80;;;;;;5052109;28;20055;-74
2022/08/29 02:04:00;;;;;;;3.58;2.50;;;21.00;59.80;;;;;;5052441;28;20056;-74
2022/08/29 02:06:27;;;;;;;3.67;2.20;;;20.80;58.80;;;;;;5053132;28;20041;-74
2022/08/29 02:08:54;;;;;;;3.22;2.15;;;20.80;58.80;;;;;;5052171;28;20127;-74
2022/08/29 02:11:21;;;;;;;3.75;2.42;;;20.80;58.80;;;;;;5051887;28;20049;-74
2022/08/29 02:13:49;;;;;;;4.55;2.17;;;20.80;58.80;;;;;;5035479;28;20115;-74
2022/08/29 02:16:18;;;;;;;2.97;1.90;;;20.80;61.30;;;;;;5053282;28;20128;-74
2022/08/29 02:18:45;;;;;;;4.07;2.40;;;20.80;58.90;;;;;;5051767;28;20128;-74
2022/08/29 02:21:12;;;;;;;4.50;2.22;;;20.80;58.90;;;;;;5051605;28;20168;-73
2022/08/29 02:23:40;;;;;;;2.92;2.03;;;20.80;58.90;;;;;;5051915;28;20140;-74
2022/08/29 02:26:06;;;;;;;3.40;2.30;;;20.80;58.90;;;;;;5051965;28;20060;-74
2022/08/29 02:28:34;;;;;;;3.92;2.30;;;20.80;58.90;;;;;;5051757;28;20368;-74
2022/08/29 02:31:01;;;;;;;3.70;2.25;;;20.80;58.90;;;;;;5051716;28;20048;-74
2022/08/29 02:33:30;;;;;;;3.35;2.30;;;20.80;58.90;;;;;;5051425;28;20143;-73
2022/08/29 02:35:57;;;;;;;4.68;1.85;;;20.80;58.90;;;;;;5050897;28;20057;-74
2022/08/29 02:38:24;;;;;;;3.10;2.30;;;20.70;61.00;;;;;;5051154;28;20056;-74
2022/08/29 02:40:51;;;;;;;4.95;2.20;;;20.80;59.00;;;;;;5051235;28;20067;-74
2022/08/29 02:43:18;;;;;;;3.80;2.38;;;20.80;59.00;;;;;;5051250;28;20055;-74
2022/08/29 02:45:45;;;;;;;3.88;1.90;;;20.70;58.90;;;;;;5051318;28;20098;-74
2022/08/29 02:48:11;;;;;;;4.40;2.13;;;20.70;58.90;;;;;;5051576;28;20049;-74
2022/08/29 02:50:41;;;;;;;3.28;2.10;;;20.80;59.00;;;;;;5051112;28;20056;-74
2022/08/29 02:53:08;;;;;;;3.78;2.20;;;20.80;59.00;;;;;;5051468;28;20549;-75
2022/08/29 02:55:35;;;;;;;4.55;2.00;;;20.70;59.00;;;;;;5051379;28;20061;-73
2022/08/29 02:58:01;;;;;;;3.25;2.25;;;20.80;59.10;;;;;;5051149;28;20057;-75
2022/08/29 03:00:28;;;;;;;3.25;2.10;;;20.80;59.10;;;;;;5050834;28;20429;-74
2022/08/29 03:02:55;;;;;;;4.03;2.35;;;20.80;59.10;;;;;;5050919;28;20060;-74
2022/08/29 03:05:26;;;;;;;4.78;2.20;;;20.70;59.10;;;;;;5051194;28;20053;-74
2022/08/29 03:07:54;;;;;;;4.50;2.20;;;20.80;61.70;;;;;;5051257;28;20057;-74
2022/08/29 03:10:21;;;;;;;3.47;2.15;;;20.70;59.10;;;;;;5034104;28;20059;-74
2022/08/29 03:12:48;;;;;;;4.03;2.33;;;20.70;59.10;;;;;;5050621;28;20140;-74
2022/08/29 03:15:14;;;;;;;2.90;1.90;;;20.70;59.10;;;;;;5051056;28;20053;-72
2022/08/29 03:17:41;;;;;;;4.82;2.58;;;20.70;59.10;;;;;;5051053;28;20421;-73
2022/08/29 03:20:09;;;;;;;4.13;2.50;;;20.70;59.10;;;;;;5050575;28;20253;-72
2022/08/29 03:22:36;;;;;;;3.15;2.10;;;20.70;59.10;;;;;;5050718;28;20060;-72
2022/08/29 03:25:04;;;;;;;3.22;2.05;;;20.70;59.10;;;;;;5050828;28;20055;-71
2022/08/29 03:27:32;;;;;;;4.68;2.20;;;20.70;59.10;;;;;;5050804;28;20704;-71
2022/08/29 03:29:59;;;;;;;3.13;2.20;;;20.70;59.20;;;;;;5050324;28;20055;-72
2022/08/29 03:32:25;;;;;;;3.75;2.38;;;20.70;59.20;;;;;;5050369;28;20051;-71
2022/08/29 03:34:52;;;;;;;2.35;1.75;;;20.70;59.10;;;;;;5050301;28;20081;-72
2022/08/29 03:37:19;;;;;;;4.05;2.20;;;20.70;59.20;;;;;;5050548;28;20124;-71
2022/08/29 03:39:46;;;;;;;3.40;1.90;;;20.70;59.20;;;;;;5050127;28;20477;-74
2022/08/29 03:42:14;;;;;;;2.95;2.05;;;20.60;59.20;;;;;;5049995;28;20049;-72
2022/08/29 03:44:41;;;;;;;3.70;2.10;;;20.70;59.20;;;;;;5049995;28;20064;-73
2022/08/29 03:47:08;;;;;;;3.13;2.08;;;20.70;61.60;;;;;;5050501;28;20063;-72
2022/08/29 03:49:34;;;;;;;3.10;1.95;;;20.70;59.20;;;;;;5046956;28;20069;-72
2022/08/29 03:52:02;;;;;;;4.60;2.20;;;20.60;59.10;;;;;;5049971;28;20048;-72
2022/08/29 03:54:29;;;;;;;2.70;1.92;;;20.70;59.20;;;;;;5050031;28;20056;-72
2022/08/29 03:56:56;;;;;;;3.70;1.95;;;20.70;59.20;;;;;;5049977;28;20063;-71
2022/08/29 03:59:24;;;;;;;3.40;2.10;;;20.70;59.30;;;;;;5051109;28;20052;-71
2022/08/29 04:01:51;;;;;;;2.90;1.95;;;20.70;59.30;;;;;;5047366;28;20416;-72
2022/08/29 04:07:00;;;;;;;3.60;2.33;;;20.60;61.10;;;;;;5049473;28;20045;-72
2022/08/29 04:09:27;;;;;;;2.70;2.00;;;20.60;59.30;;;;;;5049809;28;20053;-73
2022/08/29 04:11:53;;;;;;;3.33;2.20;;;20.70;59.30;;;;;;5050051;28;20055;-71
2022/08/29 04:14:20;;;;;;;2.85;2.08;;;19.60;60.70;;;;;;5050181;28;20057;-71
2022/08/29 04:16:49;;;;;;;3.50;2.10;;;20.60;59.30;;;;;;5049908;28;20144;-72
2022/08/29 04:19:16;;;;;;;3.00;1.90;;;20.60;59.30;;;;;;5049359;28;20049;-71
2022/08/29 04:21:43;;;;;;;2.85;1.95;;;20.60;59.40;;;;;;5050890;28;20048;-71
2022/08/29 04:24:10;;;;;;;3.22;2.15;;;20.80;59.50;;;;;;5051024;28;20128;-71
2022/08/29 04:26:36;;;;;;;2.72;1.92;;;20.60;59.40;;;;;;5050499;28;20069;-71
2022/08/29 04:29:03;;;;;;;3.10;1.90;;;20.60;59.40;;;;;;5050417;28;20045;-73
2022/08/29 04:31:30;;;;;;;2.92;1.80;;;20.60;59.50;;;;;;5049924;28;20132;-72
2022/08/29 04:33:58;;;;;;;2.67;1.80;;;20.60;60.30;;;;;;5050017;28;20063;-71
2022/08/29 04:36:26;;;;;;;2.95;1.95;;;20.60;59.50;;;;;;5050288;28;20057;-71
2022/08/29 04:38:54;;;;;;;5.60;2.00;;;20.60;59.50;;;;;;5049880;28;20061;-71
2022/08/29 04:41:21;;;;;;;2.30;1.80;;;20.60;59.50;;;;;;5050845;28;20474;-71
2022/08/29 04:43:48;;;;;;;3.67;2.13;;;20.60;59.50;;;;;;5050102;28;20536;-73
2022/08/29 04:46:15;;;;;;;3.10;1.88;;;20.60;59.50;;;;;;5051320;28;20448;-72
2022/08/29 04:48:41;;;;;;;3.65;2.03;;;21.10;62.00;;;;;;5049964;28;20057;-72
2022/08/29 04:51:10;;;;;;;2.50;1.80;;;20.70;59.60;;;;;;5050873;28;20405;-72
2022/08/29 04:53:36;;;;;;;4.43;1.83;;;20.60;59.60;;;;;;5049937;28;20486;-72
2022/08/29 04:56:05;;;;;;;2.97;1.90;;;20.50;59.50;;;;;;5049965;28;20063;-71
2022/08/29 04:58:32;;;;;;;3.97;1.80;;;20.50;59.50;;;;;;5049850;28;20084;-72
2022/08/29 05:00:59;;;;;;;4.05;1.85;;;20.60;59.60;;;;;;5052029;28;20067;-71
2022/08/29 05:03:26;;;;;;;3.45;2.00;;;20.60;59.60;;;;;;5053570;28;20143;-71
2022/08/29 05:05:56;;;;;;;3.13;2.03;;;20.60;59.70;;;;;;5053057;28;20059;-72
2022/08/29 05:08:24;;;;;;;3.03;1.80;;;20.60;59.70;;;;;;5053084;28;20060;-72
2022/08/29 05:10:51;;;;;;;5.60;1.80;;;20.60;59.70;;;;;;5053266;28;20139;-72
2022/08/29 05:13:18;;;;;;;3.83;1.70;;;20.60;59.70;;;;;;5053427;28;20500;-71
2022/08/29 05:15:44;;;;;;;2.72;1.90;;;20.60;59.70;;;;;;5053305;28;20056;-71
2022/08/29 05:18:11;;;;;;;3.22;1.98;;;20.60;59.70;;;;;;5053325;28;20057;-72
2022/08/29 05:20:39;;;;;;;3.03;1.98;;;21.10;62.00;;;;;;5052594;28;20532;-71
2022/08/29 05:23:06;;;;;;;2.30;1.63;;;20.50;59.60;;;;;;5052919;28;20057;-71
2022/08/29 05:25:34;;;;;;;3.28;1.90;;;20.60;59.70;;;;;;5052675;28;20080;-73
2022/08/29 05:28:01;;;;;;;2.38;1.70;;;20.60;59.70;;;;;;5053108;28;20052;-73
2022/08/29 05:30:28;;;;;;;2.72;1.88;;;20.60;59.70;;;;;;5052611;28;20128;-72
2022/08/29 05:32:54;;;;;;;1.92;1.60;;;20.60;59.70;;;;;;5052821;28;20516;-71
2022/08/29 05:35:21;;;;;;;2.80;1.90;;;20.60;59.70;;;;;;5052991;28;20144;-73
2022/08/29 05:37:48;;;;;;;5.10;1.83;;;20.60;59.70;;;;;;5052762;28;20139;-72
2022/08/29 05:40:15;;;;;;;2.90;1.88;;;20.50;59.70;;;;;;5052580;28;20076;-72
2022/08/29 05:42:43;;;;;;;3.60;1.70;;;20.60;59.80;;;;;;5052686;28;20064;-73
2022/08/29 05:45:10;;;;;;;2.88;1.85;;;20.60;59.80;;;;;;5051902;28;20061;-73
2022/08/29 05:47:37;;;;;;;3.17;1.80;;;20.60;59.80;;;;;;5052810;28;20060;-72
2022/08/29 05:50:06;;;;;;;2.47;1.80;;;20.60;59.80;;;;;;5052548;28;20052;-73
2022/08/29 05:52:32;;;;;;;3.60;2.17;;;20.60;59.80;;;;;;5052416;28;20448;-71
2022/08/29 05:55:00;;;;;;;2.30;1.50;;;20.60;59.80;;;;;;5052313;28;21836;-72
2022/08/29 05:57:27;;;;;;;2.03;1.60;;;20.60;60.30;;;;;;5048450;28;20041;-73
2022/08/29 05:59:55;;;;;;;2.30;1.52;;;20.50;62.10;;;;;;5051900;28;20045;-71
2022/08/29 06:02:22;;;;;;;2.15;1.73;;;19.80;62.00;;;;;;5052316;28;20053;-71
2022/08/29 06:04:49;;;;;;;2.47;1.50;;;20.60;59.80;;;;;;5051867;28;20052;-72
2022/08/29 06:07:16;;;;;;;2.70;1.55;;;20.60;59.80;;;;;;5052210;28;20136;-71
2022/08/29 06:09:43;;;;;;;2.95;1.83;;;20.60;59.90;;;;;;5052408;28;20399;-72
2022/08/29 06:12:09;;;;;;;3.00;1.80;;;20.50;59.80;;;;;;5050648;28;20124;-73
2022/08/29 06:14:36;;;;;;;2.47;1.83;;;20.50;59.80;;;;;;5052853;28;20064;-74
2022/08/29 06:17:05;;;;;;;3.05;1.80;;;20.60;59.80;;;;;;5051751;28;20049;-73
2022/08/29 06:19:33;;;;;;;2.20;1.60;;;20.60;59.80;;;;;;5051306;28;20080;-73
2022/08/29 06:22:01;;;;;;;3.92;1.70;;;20.60;59.90;;;;;;5052239;28;20076;-73
2022/08/29 06:24:28;;;;;;;2.38;1.50;;;20.60;62.00;;;;;;5051769;28;20562;-73
2022/08/29 06:26:55;;;;;;;2.35;1.55;;;20.60;59.90;;;;;;5051714;28;20053;-73
2022/08/29 06:29:22;;;;;;;2.42;1.45;;;20.60;59.90;;;;;;5051687;28;20428;-73
2022/08/29 06:31:49;;;;;;;2.60;1.55;;;20.60;59.90;;;;;;5051130;28;20136;-72
2022/08/29 06:34:17;;;;;;;2.40;1.50;;;20.60;59.90;;;;;;5051331;28;20063;-73
2022/08/29 06:36:43;;;;;;;2.00;1.50;;;20.60;59.90;;;;;;5050684;28;20057;-74
2022/08/29 06:39:10;;;;;;;3.08;1.70;;;20.60;59.90;;;;;;5051013;28;20424;-74
2022/08/29 06:41:38;;;;;;;2.70;1.58;;;20.60;59.90;;;;;;5051196;28;20594;-72
2022/08/29 06:44:05;;;;;;;1.88;1.52;;;20.60;59.80;;;;;;5051619;28;20134;-74
2022/08/29 06:46:32;;;;;;;2.33;1.80;;;20.70;59.90;;;;;;5051576;28;20067;-73
2022/08/29 06:49:01;;;;;;;2.65;1.58;;;20.70;59.80;;;;;;5051283;28;20048;-74
2022/08/29 06:51:31;;;;;;;4.22;1.52;;;20.70;59.80;;;;;;5052187;28;20494;-72
2022/08/29 06:53:58;;;;;;;2.85;1.67;;;20.80;59.80;;;;;;5052454;28;20460;-74
2022/08/29 06:56:25;;;;;;;2.97;1.75;;;20.80;59.70;;;;;;5052655;28;20055;-74
2022/08/29 06:58:52;;;;;;;4.60;2.20;;;20.80;59.70;;;;;;5052582;28;20049;-74
2022/08/29 07:01:21;;;;;;;2.38;1.77;;;20.90;59.80;;;;;;5050956;28;20059;-74
2022/08/29 07:03:48;;;;;;;2.90;1.83;;;20.90;59.80;;;;;;5051445;28;20064;-72
2022/08/29 07:06:15;;;;;;;4.22;2.20;;;20.90;59.80;;;;;;5051059;28;20060;-74
2022/08/29 07:08:44;;;;;;;2.65;1.48;;;20.90;59.70;;;;;;5051363;28;20059;-73
2022/08/29 07:11:10;;;;;;;2.97;1.60;;;20.90;59.80;;;;;;5050601;28;20045;-73
2022/08/29 07:13:38;;;;;;;3.15;1.90;;;20.90;59.70;;;;;;5051732;28;20056;-74
2022/08/29 07:16:07;;;;;;;3.42;1.98;;;21.00;59.70;;;;;;5050359;28;20059;-73
2022/08/29 07:18:34;;;;;;;3.33;1.75;;;21.00;59.70;;;;;;5050405;28;20061;-71
2022/08/29 07:21:04;;;;;;;2.70;1.65;;;21.00;59.70;;;;;;5049753;28;20044;-73
2022/08/29 07:23:32;;;;;;;3.13;1.80;;;21.00;59.70;;;;;;5050187;28;20548;-73
2022/08/29 07:26:08;;;;;;;3.20;1.83;;;21.00;59.70;;;;;;5050521;28;20382;-73
2022/08/29 07:28:35;;;;;;;3.50;1.85;;;21.10;59.70;;;;;;5049600;28;20052;-73
2022/08/29 07:31:02;;;;;;;4.07;2.13;;;21.00;59.70;;;;;;5048659;28;20076;-73
2022/08/29 07:33:29;;;;;;;3.35;2.00;;;21.00;59.70;;;;;;5049992;28;20135;-73
2022/08/29 07:35:56;;;;;;;3.65;1.73;;;21.00;59.70;;;;;;5050939;28;20068;-74
2022/08/29 07:38:23;;;;;;;2.97;1.70;;;21.20;59.90;;;;;;5049855;28;20067;-72
2022/08/29 07:40:57;;;;;;;3.08;1.83;;;21.00;59.80;;;;;;5049378;28;20040;-74
2022/08/29 07:43:25;;;;;;;3.37;1.67;;;21.00;59.70;;;;;;5049178;28;20498;-74
2022/08/29 07:45:52;;;;;;;4.38;1.90;;;21.00;59.80;;;;;;5049432;28;20048;-74
2022/08/29 07:48:18;;;;;;;2.65;1.67;;;21.00;59.90;;;;;;5050232;28;20049;-74
2022/08/29 07:50:45;;;;;;;2.72;1.60;;;21.00;59.90;;;;;;5049343;28;20079;-73
2022/08/29 07:53:12;;;;;;;2.95;1.70;;;21.00;59.90;;;;;;5048921;28;20065;-74
2022/08/29 07:55:38;;;;;;;2.97;1.60;;;21.00;59.90;;;;;;5048347;28;20055;-74
2022/08/29 07:58:05;;;;;;;2.67;1.65;;;21.00;60.40;;;;;;5050988;28;20627;-74
2022/08/29 08:00:33;;;;;;;2.05;1.50;;;21.00;59.90;;;;;;5050727;28;20049;-74
2022/08/29 08:03:00;;;;;;;2.60;1.77;;;20.90;59.80;;;;;;5050415;28;20059;-74
2022/08/29 08:05:27;;;;;;;3.08;1.67;;;21.00;59.90;;;;;;5032482;28;20494;-74
2022/08/29 08:07:53;;;;;;;2.65;1.63;;;20.90;59.80;;;;;;5049447;28;20429;-75
2022/08/29 08:10:23;;;;;;;2.63;1.85;;;21.00;59.90;;;;;;5049690;28;20136;-76
2022/08/29 08:12:50;;;;;;;2.35;1.58;;;20.80;59.80;;;;;;5049137;28;20057;-75
2022/08/29 08:15:17;;;;;;;2.28;1.40;;;21.00;59.90;;;;;;5050020;28;20056;-76
2022/08/29 08:17:45;;;;;;;3.30;1.48;;;21.00;59.90;;;;;;5050093;28;20146;-76
2022/08/29 08:20:12;;;;;;;2.28;1.55;;;20.90;59.80;;;;;;5046885;28;20053;-76
2022/08/29 08:22:39;;;;;;;2.10;1.48;;;20.90;59.80;;;;;;5049604;28;20111;-74
2022/08/29 08:25:06;;;;;;;3.10;1.65;;;20.90;59.80;;;;;;5049551;28;20059;-73
2022/08/29 08:27:33;;;;;;;3.55;1.92;;;21.70;60.30;;;;;;5050550;28;20383;-74
2022/08/29 08:30:00;;;;;;;2.50;1.63;;;20.90;59.80;;;;;;5048310;28;20055;-74
2022/08/29 08:32:26;;;;;;;3.97;1.90;;;20.90;59.80;;;;;;5050469;28;20052;-72
2022/08/29 08:34:54;;;;;;;2.05;1.48;;;20.90;59.80;;;;;;5051383;28;20073;-75
2022/08/29 08:37:21;;;;;;;3.63;1.80;;;20.90;59.80;;;;;;5052889;28;20144;-74
2022/08/29 08:39:48;;;;;;;1.80;1.30;;;20.40;61.70;;;;;;5053146;28;20132;-74
2022/08/29 08:42:22;;;;;;;3.45;1.60;;;20.90;59.80;;;;;;5052911;28;20482;-74
2022/08/29 08:45:07;;;;;;;2.67;1.60;;;20.90;59.90;;;;;;5053179;28;20061;-73
2022/08/29 08:47:35;;;;;;;2.58;1.67;;;20.90;59.80;;;;;;5052795;28;20128;-74
2022/08/29 08:50:06;;;;;;;4.40;1.77;;;20.90;59.90;;;;;;5053166;28;20057;-74
2022/08/29 08:52:37;;;;;;;3.38;1.67;;;20.90;59.90;;;;;;5052942;28;20049;-74
2022/08/29 08:55:07;;;;;;;2.55;1.60;;;21.00;60.00;;;;;;5052686;28;20045;-75
2022/08/29 08:57:38;;;;;;;4.10;1.88;;;20.90;60.40;;;;;;5052979;28;20405;-73
2022/08/29 09:00:06;;;;;;;5.45;2.10;;;21.00;62.10;;;;;;5054046;28;20053;-74
2022/08/29 09:02:36;;;;;;;3.95;2.03;;;21.00;60.00;;;;;;5053177;28;20453;-74
2022/08/29 09:05:18;;;;;;;6.97;2.45;;;21.20;60.10;;;;;;5053486;28;20045;-74
2022/08/29 09:07:49;;;;;;;4.10;1.83;;;21.00;60.00;;;;;;5054312;28;20056;-73
2022/08/29 09:10:20;;;;;;;4.97;2.45;;;21.10;60.00;;;;;;5054025;28;20048;-73
2022/08/29 09:12:53;;;;;;;7.55;2.10;;;21.10;60.00;;;;;;5052931;28;20135;-74
2022/08/29 09:15:22;;;;;;;5.85;2.20;;;21.20;60.10;;;;;;5053384;28;20064;-73
2022/08/29 09:17:49;;;;;;;5.47;2.38;;;21.20;60.00;;;;;;5053144;28;20076;-72
2022/08/29 09:20:21;;;;;;;7.90;2.33;;;21.30;62.80;;;;;;5052811;28;20049;-73
2022/08/29 09:22:52;;;;;;;9.63;2.88;;;21.20;62.00;;;;;;5053184;28;20064;-72
2022/08/29 09:25:19;;;;;;;11.23;2.92;;;21.20;60.60;;;;;;5054275;28;20044;-72
2022/08/29 09:27:48;;;;;;;8.38;2.55;;;21.30;60.60;;;;;;5052593;28;20588;-73
2022/08/29 09:30:17;;;;;;;8.00;2.70;;;21.30;60.70;;;;;;5051913;28;20545;-72
2022/08/29 09:32:59;;;;;;;10.75;2.80;;;21.30;60.70;;;;;;5052874;28;20063;-72
2022/08/29 09:35:30;;;;;;;7.60;2.60;;;21.30;60.70;;;;;;5052698;28;20059;-72
2022/08/29 09:37:58;;;;;;;11.25;2.67;;;21.30;61.30;;;;;;5051359;28;20199;-72
2022/08/29 09:40:40;;;;;;;5.38;2.60;;;21.30;60.90;;;;;;5051525;28;20135;-72
2022/08/29 09:43:07;;;;;;;6.63;3.03;;;21.30;60.70;;;;;;5052767;28;20076;-74
2022/08/29 09:45:33;;;;;;;7.90;2.72;;;21.30;60.90;;;;;;5052071;28;20053;-72
2022/08/29 09:48:08;;;;;;;5.80;2.30;;;21.30;61.00;;;;;;5051580;28;20061;-73
2022/08/29 09:50:37;;;;;;;;;;;21.30;61.10;;;;;;5052433;28;20076;-73
2022/08/29 09:53:04;;;;;;;9.55;2.78;;;21.30;61.20;;;;;;5052128;28;20358;-73
2022/08/29 09:55:32;;;;;;;8.85;2.70;;;21.30;61.20;;;;;;5052453;28;20137;-72
2022/08/29 09:58:01;;;;;;;10.18;2.72;;;21.30;61.20;;;;;;5052053;28;20132;-73
2022/08/29 10:00:30;;;;;;;6.50;2.42;;;21.40;61.20;;;;;;5051826;28;20139;-72
2022/08/29 10:02:57;;;;;;;6.07;2.38;;;21.40;61.40;;;;;;5052192;28;20666;-72
2022/08/29 10:05:30;;;;;;;5.88;2.38;;;21.40;61.20;;;;;;5051979;28;20052;-73
2022/08/29 10:07:58;;;;;;;6.13;2.70;;;21.40;60.90;;;;;;5052086;28;20068;-73
2022/08/29 10:10:26;;;;;;;5.80;2.13;;;21.50;60.70;;;;;;5051572;28;20127;-73
2022/08/29 10:12:56;;;;;;;5.13;2.10;;;21.60;60.60;;;;;;5051675;28;20135;-72
2022/08/29 10:15:25;;;;;;;6.97;2.20;;;21.60;60.50;;;;;;5051833;28;20395;-73
2022/08/29 10:20:46;;;;;;;6.68;2.17;;;21.80;60.50;;;;;;5050348;28;20084;-71
2022/08/29 10:23:20;;;;;;;4.15;2.05;;;22.10;63.20;;;;;;5049089;28;20064;-71
2022/08/29 10:25:46;;;;;;;6.47;2.45;;;22.00;60.60;;;;;;5051714;28;20067;-71
2022/08/29 10:28:16;;;;;;;4.90;2.75;;;22.10;60.40;;;;;;5051975;28;20057;-71
2022/08/29 10:30:47;;;;;;;5.13;2.30;;;22.20;60.40;;;;;;5051605;28;20461;-71
2022/08/29 10:33:34;;;;;;;7.82;2.03;;;22.30;60.50;;;;;;5051751;28;20053;-71
2022/08/29 10:36:02;;;;;;;7.05;2.30;;;22.40;60.70;;;;;;5051270;28;20147;-72
2022/08/29 10:38:48;;;;;;;5.72;1.98;;;22.30;60.30;;;;;;5051263;28;20154;-72
2022/08/29 10:41:24;;;;;;;6.72;2.03;;;22.50;61.00;;;;;;5051139;28;20056;-72
2022/08/29 10:43:54;;;;;;;9.07;2.75;;;22.10;60.50;;;;;;5051601;28;20056;-71
2022/08/29 10:46:33;;;;;;;5.30;2.00;;;22.60;60.60;;;;;;5051467;28;20067;-72
2022/08/29 10:49:03;;;;;;;5.53;2.60;;;22.70;60.90;;;;;;5051554;28;20561;-71
2022/08/29 10:51:33;;;;;;;5.35;2.70;;;22.80;60.90;;;;;;5051410;28;20063;-71
2022/08/29 10:54:04;;;;;;;5.65;2.13;;;22.60;60.90;;;;;;5051055;28;20053;-71
2022/08/29 10:56:33;;;;;;;4.30;2.20;;;22.90;60.90;;;;;;5050923;28;20057;-72
2022/08/29 10:59:03;;;;;;;8.57;2.10;;;22.90;60.80;;;;;;5052050;28;20461;-71
2022/08/29 11:01:32;;;;;;;7.28;2.85;;;22.90;60.70;;;;;;5050909;28;20454;-72
2022/08/29 11:04:15;;;;;;;6.95;2.25;;;23.00;60.80;;;;;;5050624;28;20048;-72
2022/08/29 11:06:46;;;;;;;5.47;2.33;;;23.00;60.80;;;;;;5051285;28;20138;-71
2022/08/29 11:09:16;;;;;;;6.85;2.17;;;23.10;60.80;;;;;;5050511;28;20048;-73
2022/08/29 11:11:46;;;;;;;4.30;2.03;;;23.20;60.90;;;;;;5047943;28;20128;-71
2022/08/29 11:14:21;;;;;;;7.38;2.38;;;23.20;60.70;;;;;;5050458;28;20055;-72
2022/08/29 11:16:48;;;;;;;8.23;2.25;;;23.20;60.60;;;;;;5052474;28;20045;-72
2022/08/29 11:19:18;;;;;;;7.07;2.15;;;23.20;60.50;;;;;;5050797;28;20401;-71
2022/08/29 11:21:47;;;;;;;6.10;2.03;;;23.30;60.50;;;;;;5050326;28;20057;-71
2022/08/29 11:24:15;;;;;;;6.80;2.00;;;23.10;60.30;;;;;;5052216;28;20412;-73
2022/08/29 11:26:49;;;;;;;4.97;2.33;;;23.10;60.20;;;;;;5049723;28;20582;-73
2022/08/29 11:29:23;;;;;;;3.70;1.80;;;23.10;60.20;;;;;;5050518;28;20045;-72
2022/08/29 11:31:53;;;;;;;4.88;1.90;;;23.10;60.10;;;;;;5047330;28;20053;-72
2022/08/29 11:34:27;;;;;;;5.70;2.30;;;23.10;60.10;;;;;;5049434;28;20049;-72
2022/08/29 11:37:06;;;;;;;16.10;3.03;;;23.10;60.00;;;;;;5049714;28;20049;-72
2022/08/29 11:39:49;;;;;;;5.05;2.20;;;23.00;60.00;;;;;;5051209;28;20404;-72
2022/08/29 11:42:17;;;;;;;3.53;1.83;;;23.00;59.90;;;;;;5045898;28;20045;-72
2022/08/29 11:44:44;;;;;;;3.60;2.00;;;23.00;60.00;;;;;;5039162;28;20536;-71
2022/08/29 11:47:32;;;;;;;7.13;2.45;;;23.00;60.00;;;;;;5050988;28;20140;-71
2022/08/29 11:50:03;;;;;;;4.97;2.33;;;23.00;59.90;;;;;;5050741;28;20131;-72
2022/08/29 11:52:29;;;;;;;6.18;2.17;;;23.00;60.00;;;;;;5050595;28;20049;-71
2022/08/29 11:55:29;;;;;;;4.05;1.88;;;22.90;59.90;;;;;;5049643;28;20057;-73
2022/08/29 11:58:05;;;;;;;6.85;2.13;;;23.00;59.80;;;;;;5050797;28;20049;-72
2022/08/29 12:00:38;;;;;;;5.07;2.10;;;23.00;59.90;;;;;;5050459;28;20486;-72
2022/08/29 12:03:05;;;;;;;4.22;1.98;;;23.00;59.90;;;;;;5050474;28;20064;-74
2022/08/29 12:05:50;;;;;;;3.58;1.95;;;22.90;59.80;;;;;;5049492;28;20063;-72
2022/08/29 12:08:30;;;;;;;4.53;1.95;;;23.00;59.70;;;;;;5049035;28;20136;-72
2022/08/29 12:10:58;;;;;;;9.32;2.53;;;23.00;59.80;;;;;;5051480;28;20491;-73
2022/08/29 12:13:59;;;;;;;5.20;1.90;;;23.00;59.80;;;;;;5054430;28;20076;-73
2022/08/29 12:16:27;;;;;;;6.25;1.85;;;23.00;59.70;;;;;;5053114;28;20060;-73
2022/08/29 12:18:53;;;;;;;7.38;1.90;;;23.00;59.70;;;;;;5053634;28;20421;-72
2022/08/29 12:21:46;;;;;;;3.63;1.95;;;22.90;59.70;;;;;;5053684;28;20132;-72
2022/08/29 12:24:41;;;;;;;6.03;2.30;;;23.00;59.80;;;;;;5053949;28;20048;-72
2022/08/29 12:27:23;;;;;;;4.50;1.70;;;23.00;59.80;;;;;;5055341;28;20049;-72
2022/08/29 12:29:50;;;;;;;4.18;2.15;;;23.00;59.70;;;;;;5053855;28;20059;-71
2022/08/29 12:32:41;;;;;;;3.58;2.35;;;22.80;59.70;;;;;;5053442;28;20103;-72
2022/08/29 12:35:32;;;;;;;6.05;1.83;;;23.00;59.70;;;;;;5060994;28;20140;-72
2022/08/29 12:38:06;;;;;;;6.57;2.20;;;22.90;59.70;;;;;;5053056;28;20512;-72
2022/08/29 12:40:47;;;;;;;2.85;1.80;;;22.90;59.70;;;;;;5049180;28;20136;-72
2022/08/29 12:43:27;;;;;;;3.35;2.00;;;22.90;59.70;;;;;;5050274;28;20136;-72
2022/08/29 12:45:55;;;;;;;7.50;2.10;;;22.90;59.70;;;;;;5051022;28;20111;-71
2022/08/29 12:48:23;;;;;;;4.97;2.22;;;22.90;59.70;;;;;;5051882;28;20142;-71
2022/08/29 12:50:52;;;;;;;4.10;2.03;;;23.00;59.80;;;;;;5053375;28;20106;-71
2022/08/29 12:53:22;;;;;;;3.25;1.70;;;22.80;59.70;;;;;;5054489;28;20571;-71
2022/08/29 12:55:50;;;;;;;4.47;1.80;;;22.80;59.60;;;;;;5055040;28;20049;-72
2022/08/29 12:58:36;;;;;;;5.22;1.90;;;22.90;59.50;;;;;;5053706;28;20139;-72
2022/08/29 13:01:03;;;;;;;3.83;1.83;;;22.90;59.40;;;;;;5053311;28;20445;-71
2022/08/29 13:03:30;;;;;;;3.28;1.65;;;22.90;59.50;;;;;;5051972;28;20053;-72
2022/08/29 13:06:03;;;;;;;5.18;2.13;;;22.90;59.40;;;;;;5051665;28;20135;-71